Terminal Aerodrome Forecast
Issued by NWS

Home | Current Version | Previous Version | Text Only | Print | Product List | Glossary On
Versions: 1 2 3 4 5 6 7 8 9 10 11 12 13 14 15 16 17 18
000
FTUS44 KLZK 010600 AAA
TAFPBF
TAF AMD
KPBF 010603Z 0106/0206 07004KT P6SM VCSH OVC050
      TEMPO 0106/0110 -PL
     FM011000 02003KT 5SM -RA BR SCT007 OVC020
     FM011500 03003KT 5SM -RA BR OVC007
     FM020000 04005KT 3SM BR OVC004=

USA.gov is the U.S. government's official web portal to all federal, state and local government web resources and services.